Баландино

Карта отелей и гостиниц, располагающихся рядом с аэропортом Баландино :

Баландино
Челябинск
Челябинская область 55° 18' 20.7612" N, 61° 30' 12.5388" E
Код аэродрома ИКАО
USCC
Код аэродрома RU
УСЦЦ
Координаты
N55.30577° E061.50348°
Превышение над уровнем моря
234
Основная полоса
09/27
Курс магнитный
090,3/270,3
Длина основной ВПП
3204
Ширина основной ВПП
60
Покрытие основной ВПП
Твёрдое
Освещение ВПП
Постоянное
Тип: 
Аэродром
Класс аэродрома: 
Международный
Принадлежность: 
ГА
Статус: 
Действующий
Сайт: 
www.aeroport-74.ru
Страна: 
Россия
Регион: 
Челябинская область
Город: 
Челябинск
Дополнительная информация: 
Оператор: ОАО «Челябинское авиапредприятие». Нкр.=(400)м.
Погода: 

Авиационная погода в Челябинске

Регион: 
Погода METAR: 
USCC 241700Z 25004MPS 9999 SCT030CB 05/02 Q1009 R27/250050 NOSIG RMK QFE737
Время наблюдения
2021-10-24T17:00:00Z
Температура C
5.0
Точка росы
2.0
Направление ветра
250
Скорость ветра (узлы)
8
Метео видимость
6.21
Явления погоды
Условия полета
VFR
Аэропорт подробнее: 

Найти трансфер

С помощью этой формы Вы можете найти трансфер из аэропорта Баландино в город, аэропорт или вокзал:

Карта места

Javascript is required to view this map.

Погода в аэропортах:

Авиационная погода в Нижнем Новгороде

Регион: 
Погода METAR: 
UWGG 241700Z 31006MPS 9999 -SHRA OVC010CB 02/01 Q1011 R36R/290050 NOSIG
Время наблюдения
2021-10-24T17:00:00Z
Температура C
2.0
Точка росы
1.0
Направление ветра
310
Скорость ветра (узлы)
12
Метео видимость
6.21
Явления погоды
-SHRA
Условия полета
MVFR
Аэропорт подробнее: 

Авиационная погода в Чимкенте

Регион: 
Погода METAR: 
UAII 241800Z 13003MPS 3100 FU NSC 08/03 Q1016 R10/0///70 NOSIG RMK QFE727/0969
Время наблюдения
2021-10-24T18:00:00Z
Температура C
8.0
Точка росы
3.0
Направление ветра
130
Скорость ветра (узлы)
6
Метео видимость
1.93
Явления погоды
FU
Условия полета
IFR
Аэропорт подробнее: 

Авиационная погода в Берлевоге

Регион: 
Погода METAR: 
ENBV 221920Z 01015KT 9999 VCSH FEW008 SCT030 BKN045 00/M06 Q1000
Время наблюдения
2021-10-22T19:20:00Z
Температура C
0.0
Точка росы
-6.0
Направление ветра
10
Скорость ветра (узлы)
15
Метео видимость
6.21
Явления погоды
VCSH
Условия полета
VFR

Авиационная погода в Мирном

Регион: 
Погода METAR: 
UERR 241700Z 21003MPS 9999 -SHSN FEW009 OVC020CB M00/M01 Q0997 R25/591032 NOSIG RMK QFE717/0956
Время наблюдения
2021-10-24T17:00:00Z
Температура C
0.0
Точка росы
-1.0
Направление ветра
210
Скорость ветра (узлы)
6
Метео видимость
6.21
Явления погоды
-SHSN
Условия полета
MVFR
Аэропорт подробнее: